Time;durP1;ratioP1;P1;durP2;ratioP2;P2;SDS_P1;SDS_P2;PMS_P1;PMS_P2;Temp;Humidity;BMP_temperature;BMP_pressure;BME280_temperature;BME280_humidity;BME280_pressure;Samples;Min_cycle;Max_cycle;Signal;HPM_P1;HPM_P2
2021/12/21 00:00:48;;;;;;;14.20;6.80;;;;;;;;;;5081792;28;20439;-71
2021/12/21 00:03:19;;;;;;;10.23;5.80;;;;;;;;;;5081739;28;20477;-72
2021/12/21 00:05:46;;;;;;;14.07;6.70;;;;;;;;;;5076033;28;20203;-72
2021/12/21 00:08:13;;;;;;;12.00;5.33;;;;;;;;;;5095658;28;20192;-72
2021/12/21 00:10:43;;;;;;;12.33;5.40;;;;;;;;;;5099442;28;20198;-73
2021/12/21 00:13:22;;;;;;;10.07;5.70;;;;;;;;;;5085537;28;20173;-72
2021/12/21 00:19:03;;;;;;;9.53;4.73;;;;;;;;;;5054100;28;20571;-73
2021/12/21 00:21:39;;;;;;;12.13;4.80;;;;;;;;;;5084653;28;20208;-73
2021/12/21 00:24:18;;;;;;;8.03;4.33;;;;;;;;;;5082408;28;20215;-70
2021/12/21 00:26:44;;;;;;;10.00;4.70;;;;;;;;;;5085998;28;20419;-72
2021/12/21 00:29:10;;;;;;;9.30;4.30;;;;;;;;;;5085585;28;20709;-72
2021/12/21 00:31:37;;;;;;;11.30;4.73;;;;;;;;;;5066714;28;20189;-72
2021/12/21 00:34:06;;;;;;;10.47;4.67;;;;;;;;;;5086743;28;20196;-72
2021/12/21 00:36:32;;;;;;;11.27;4.73;;;;;;;;;;5088268;28;20846;-72
2021/12/21 00:39:01;;;;;;;13.87;5.00;;;;;;;;;;5085246;28;20205;-73
2021/12/21 00:41:27;;;;;;;12.40;4.80;;;;;;;;;;5081788;28;20879;-73
2021/12/21 00:43:53;;;;;;;9.47;4.70;;;;;;;;;;5086115;28;20434;-72
2021/12/21 00:46:19;;;;;;;10.40;4.63;;;;;;;;;;5083492;28;20184;-72
2021/12/21 00:48:51;;;;;;;10.43;5.00;;;;;;;;;;5067406;28;20185;-72
2021/12/21 00:51:19;;;;;;;8.40;5.10;;;;;;;;;;5086353;28;20176;-71
2021/12/21 00:53:46;;;;;;;10.23;5.00;;;;;;;;;;5089790;28;20442;-72
2021/12/21 00:56:12;;;;;;;10.97;5.10;;;;;;;;;;5084038;28;20212;-71
2021/12/21 00:58:38;;;;;;;13.33;5.27;;;;;;;;;;5084896;28;20538;-72
2021/12/21 01:01:06;;;;;;;9.53;5.03;;;;;;;;;;5081887;28;20434;-72
2021/12/21 01:03:33;;;;;;;7.83;5.13;;;;;;;;;;5087788;28;20169;-73
2021/12/21 01:06:12;;;;;;;12.63;5.50;;;;;;;;;;5086913;28;20283;-73
2021/12/21 01:09:06;;;;;;;12.30;5.10;;;;;;;;;;5051682;28;20622;-72
2021/12/21 01:11:51;;;;;;;9.93;5.30;;;;;;;;;;5083923;28;20469;-72
2021/12/21 01:17:16;;;;;;;9.17;5.17;;;;;;;;;;5084481;28;21009;-72
2021/12/21 01:19:56;;;;;;;12.97;5.20;;;;;;;;;;5087926;28;20479;-72
2021/12/21 01:23:06;;;;;;;11.63;5.13;;;;;;;;;;5084985;28;20449;-72
2021/12/21 01:25:24;;;;;;;11.77;5.30;;;;;;;;;;5082260;28;20454;-72
2021/12/21 01:30:32;;;;;;;8.40;4.73;;;;;;;;;;5076768;28;20196;-72
2021/12/21 01:38:01;;;;;;;9.47;5.10;;;;;;;;;;5089694;28;20477;-72
2021/12/21 01:40:44;;;;;;;10.70;5.20;;;;;;;;;;5082787;28;20410;-73
2021/12/21 01:43:25;;;;;;;10.53;4.87;;;;;;;;;;5088437;28;20423;-72
2021/12/21 01:51:22;;;;;;;8.37;4.70;;;;;;;;;;5083435;28;20950;-73
2021/12/21 01:53:49;;;;;;;10.43;5.57;;;;;;;;;;5086223;28;20437;-72
2021/12/21 01:56:16;;;;;;;10.90;5.07;;;;;;;;;;5088159;28;20449;-73
2021/12/21 01:58:43;;;;;;;9.80;4.67;;;;;;;;;;5089264;28;20458;-71
2021/12/21 02:01:11;;;;;;;7.83;4.50;;;;;;;;;;5090414;28;20430;-72
2021/12/21 02:03:38;;;;;;;7.97;4.63;;;;;;;;;;5091255;28;20433;-73
2021/12/21 02:06:04;;;;;;;11.00;5.30;;;;;;;;;;5089557;28;20482;-72
2021/12/21 02:08:30;;;;;;;11.03;5.00;;;;;;;;;;5086490;28;21116;-72
2021/12/21 02:11:00;;;;;;;10.97;4.90;;;;;;;;;;5088268;28;20435;-72
2021/12/21 02:13:32;;;;;;;10.27;5.20;;;;;;;;;;5081853;28;20522;-73
2021/12/21 02:15:58;;;;;;;11.67;5.43;;;;;;;;;;5086688;28;20201;-72
2021/12/21 02:21:03;;;;;;;9.77;5.50;;;;;;;;;;5088327;28;20184;-72
2021/12/21 02:23:35;;;;;;;12.33;6.17;;;;;;;;;;5077994;28;20571;-72
2021/12/21 02:30:55;;;;;;;13.40;6.17;;;;;;;;;;5088097;28;20783;-72
2021/12/21 02:33:23;;;;;;;12.37;5.80;;;;;;;;;;5087591;28;20438;-72
2021/12/21 02:35:49;;;;;;;10.40;5.50;;;;;;;;;;5088980;28;20464;-73
2021/12/21 02:38:16;;;;;;;12.10;5.83;;;;;;;;;;5086938;28;20521;-72
2021/12/21 02:40:42;;;;;;;9.93;5.70;;;;;;;;;;5071669;28;20486;-72
2021/12/21 02:43:10;;;;;;;15.10;6.07;;;;;;;;;;5091299;28;20180;-72
2021/12/21 02:45:37;;;;;;;11.60;5.50;;;;;;;;;;5087587;28;20504;-72
2021/12/21 02:48:03;;;;;;;11.40;5.60;;;;;;;;;;5087339;28;20786;-72
2021/12/21 02:50:29;;;;;;;9.90;5.53;;;;;;;;;;5089036;28;20445;-72
2021/12/21 02:52:55;;;;;;;12.63;5.67;;;;;;;;;;5090502;28;20184;-72
2021/12/21 02:55:22;;;;;;;11.73;6.00;;;;;;;;;;5089376;28;20469;-71
2021/12/21 02:57:48;;;;;;;12.60;6.27;;;;;;;;;;5088591;28;20462;-72
2021/12/21 03:00:14;;;;;;;13.43;6.30;;;;;;;;;;5086578;28;20445;-72
2021/12/21 03:02:40;;;;;;;12.00;6.50;;;;;;;;;;5087472;28;20441;-72
2021/12/21 03:05:07;;;;;;;15.00;6.20;;;;;;;;;;5089326;28;20534;-72
2021/12/21 03:10:02;;;;;;;13.70;6.47;;;;;;;;;;5088397;28;20453;-72
2021/12/21 03:13:52;;;;;;;13.87;6.60;;;;;;;;;;5084662;28;20828;-71
2021/12/21 03:15:27;;;;;;;11.60;6.00;;;;;;;;;;5082809;28;20453;-72
2021/12/21 03:17:55;;;;;;;12.23;6.73;;;;;;;;;;5084487;28;20992;-72
2021/12/21 03:20:21;;;;;;;15.83;7.20;;;;;;;;;;5088432;28;20435;-72
2021/12/21 03:22:48;;;;;;;11.93;6.87;;;;;;;;;;5089886;28;20187;-72
2021/12/21 03:25:14;;;;;;;16.77;7.07;;;;;;;;;;5087890;28;20450;-72
2021/12/21 03:27:40;;;;;;;11.60;6.33;;;;;;;;;;5083151;28;20427;-71
2021/12/21 03:30:08;;;;;;;14.67;6.40;;;;;;;;;;5083319;28;20187;-72
2021/12/21 03:32:34;;;;;;;11.30;6.13;;;;;;;;;;5088694;28;20442;-72
2021/12/21 03:35:00;;;;;;;12.03;6.50;;;;;;;;;;5087728;28;21011;-72
2021/12/21 03:37:27;;;;;;;11.47;5.80;;;;;;;;;;5064894;28;20505;-72
2021/12/21 03:39:55;;;;;;;13.83;6.53;;;;;;;;;;5087914;28;20856;-73
2021/12/21 03:42:23;;;;;;;11.53;5.73;;;;;;;;;;5088454;28;20557;-73
2021/12/21 03:44:49;;;;;;;11.90;6.20;;;;;;;;;;5088524;28;20538;-72
2021/12/21 03:47:17;;;;;;;12.13;6.70;;;;;;;;;;5069403;28;20466;-73
2021/12/21 03:52:11;;;;;;;18.50;7.80;;;;;;;;;;5084864;28;20517;-73
2021/12/21 03:54:38;;;;;;;12.73;6.77;;;;;;;;;;5081310;28;20828;-72
2021/12/21 03:57:04;;;;;;;11.60;6.60;;;;;;;;;;5089498;28;20462;-72
2021/12/21 03:59:31;;;;;;;12.80;6.73;;;;;;;;;;5090475;28;20561;-72
2021/12/21 04:01:57;;;;;;;12.10;6.50;;;;;;;;;;5086957;28;20803;-73
2021/12/21 04:04:24;;;;;;;14.87;6.33;;;;;;;;;;5088915;28;20458;-73
2021/12/21 04:06:50;;;;;;;11.77;6.70;;;;;;;;;;5088614;28;20458;-72
2021/12/21 04:09:17;;;;;;;11.60;6.33;;;;;;;;;;5087147;28;20434;-72
2021/12/21 04:11:43;;;;;;;12.90;6.70;;;;;;;;;;5089620;28;20514;-72
2021/12/21 04:14:09;;;;;;;12.27;6.57;;;;;;;;;;5088143;28;20507;-72
2021/12/21 04:16:36;;;;;;;13.23;6.60;;;;;;;;;;5084302;28;20249;-71
2021/12/21 04:19:02;;;;;;;13.07;6.50;;;;;;;;;;5092012;28;20971;-73
2021/12/21 04:21:28;;;;;;;10.17;6.27;;;;;;;;;;5092843;28;20434;-73
2021/12/21 04:23:54;;;;;;;9.37;5.53;;;;;;;;;;5084710;28;20436;-73
2021/12/21 04:26:20;;;;;;;14.70;6.00;;;;;;;;;;5089242;28;20434;-72
2021/12/21 04:28:47;;;;;;;13.10;6.27;;;;;;;;;;5081621;28;20429;-73
2021/12/21 04:31:13;;;;;;;12.70;6.53;;;;;;;;;;5089925;28;20435;-71
2021/12/21 04:33:42;;;;;;;11.77;6.50;;;;;;;;;;5090296;28;20470;-72
2021/12/21 04:36:09;;;;;;;16.03;6.77;;;;;;;;;;5092428;28;20450;-73
2021/12/21 04:38:39;;;;;;;10.60;6.10;;;;;;;;;;5084388;28;20465;-73
2021/12/21 04:41:11;;;;;;;13.83;7.03;;;;;;;;;;5085101;28;20435;-73
2021/12/21 04:43:38;;;;;;;11.50;6.60;;;;;;;;;;5086134;28;20426;-72
2021/12/21 04:46:04;;;;;;;12.70;6.80;;;;;;;;;;5091168;28;20454;-72
2021/12/21 04:48:30;;;;;;;12.70;6.57;;;;;;;;;;5091590;28;20929;-72
2021/12/21 04:50:56;;;;;;;15.73;6.97;;;;;;;;;;5090381;28;20449;-72
2021/12/21 04:53:24;;;;;;;13.33;6.33;;;;;;;;;;5090937;28;20453;-72
2021/12/21 04:55:50;;;;;;;12.03;6.80;;;;;;;;;;5089535;28;20817;-73
2021/12/21 04:58:16;;;;;;;12.57;6.37;;;;;;;;;;5088453;28;20458;-72
2021/12/21 05:00:42;;;;;;;12.73;6.23;;;;;;;;;;5090046;28;20441;-72
2021/12/21 05:03:09;;;;;;;15.97;6.83;;;;;;;;;;5090683;28;20458;-72
2021/12/21 05:05:35;;;;;;;14.80;6.83;;;;;;;;;;5086400;28;20914;-72
2021/12/21 05:08:17;;;;;;;12.33;6.63;;;;;;;;;;5086026;28;20431;-72
2021/12/21 05:10:48;;;;;;;14.53;6.87;;;;;;;;;;5085081;28;20434;-72
2021/12/21 05:13:14;;;;;;;12.60;7.03;;;;;;;;;;5090428;28;20438;-73
2021/12/21 05:15:41;;;;;;;15.47;6.53;;;;;;;;;;5091951;28;20993;-72
2021/12/21 05:18:07;;;;;;;12.13;6.37;;;;;;;;;;5091913;28;20470;-72
2021/12/21 05:20:33;;;;;;;17.87;7.17;;;;;;;;;;5092024;28;20925;-72
2021/12/21 05:22:59;;;;;;;13.80;6.50;;;;;;;;;;5091040;28;20446;-72
2021/12/21 05:25:26;;;;;;;11.40;6.33;;;;;;;;;;5090299;28;20843;-72
2021/12/21 05:27:52;;;;;;;14.10;7.27;;;;;;;;;;5105714;28;20513;-72
2021/12/21 05:30:18;;;;;;;11.43;6.27;;;;;;;;;;5091123;28;20455;-72
2021/12/21 05:32:44;;;;;;;18.20;6.90;;;;;;;;;;5090400;28;20950;-72
2021/12/21 05:35:10;;;;;;;12.63;7.27;;;;;;;;;;5089782;28;20941;-72
2021/12/21 05:37:39;;;;;;;11.40;7.10;;;;;;;;;;5073030;28;20431;-72
2021/12/21 05:40:15;;;;;;;14.53;6.70;;;;;;;;;;5092104;28;20419;-72
2021/12/21 05:42:42;;;;;;;14.37;7.20;;;;;;;;;;5088613;28;20430;-73
2021/12/21 05:45:09;;;;;;;13.43;6.70;;;;;;;;;;5091451;28;20904;-72
2021/12/21 05:47:36;;;;;;;13.67;7.30;;;;;;;;;;5084439;28;20422;-72
2021/12/21 05:50:02;;;;;;;17.37;9.17;;;;;;;;;;5091246;28;20434;-72
2021/12/21 05:52:28;;;;;;;18.80;9.87;;;;;;;;;;5091950;28;20433;-72
2021/12/21 05:54:54;;;;;;;20.70;10.53;;;;;;;;;;5090606;28;20730;-71
2021/12/21 05:57:21;;;;;;;20.53;10.83;;;;;;;;;;5092131;28;20556;-71
2021/12/21 05:59:47;;;;;;;17.47;9.73;;;;;;;;;;5089912;28;20453;-71
2021/12/21 06:02:13;;;;;;;19.07;10.60;;;;;;;;;;5070680;28;20467;-72
2021/12/21 06:04:39;;;;;;;19.37;8.87;;;;;;;;;;5083591;28;20577;-72
2021/12/21 06:07:05;;;;;;;18.03;9.47;;;;;;;;;;5082114;28;20491;-72
2021/12/21 06:09:32;;;;;;;18.77;9.60;;;;;;;;;;5088370;28;20431;-72
2021/12/21 06:12:28;;;;;;;16.77;9.67;;;;;;;;;;5072739;28;20419;-71
2021/12/21 06:15:14;;;;;;;14.50;9.87;;;;;;;;;;5082319;28;20734;-73
2021/12/21 06:25:59;;;;;;;16.87;10.47;;;;;;;;;;5087669;28;20792;-78
2021/12/21 06:28:26;;;;;;;14.93;8.67;;;;;;;;;;5056111;28;20249;-77
2021/12/21 06:30:52;;;;;;;16.37;9.43;;;;;;;;;;5074174;28;20471;-78
2021/12/21 06:33:18;;;;;;;16.43;9.77;;;;;;;;;;5057067;28;20426;-76
2021/12/21 06:35:45;;;;;;;14.23;9.07;;;;;;;;;;5091046;28;20983;-75
2021/12/21 06:38:12;;;;;;;15.43;8.17;;;;;;;;;;5090948;28;20450;-75
2021/12/21 06:40:38;;;;;;;13.10;7.60;;;;;;;;;;5091681;28;20403;-80
2021/12/21 06:43:05;;;;;;;15.37;7.20;;;;;;;;;;5038027;28;20412;-76
2021/12/21 06:45:45;;;;;;;14.60;8.17;;;;;;;;;;5087697;28;20473;-79
2021/12/21 06:51:15;;;;;;;18.97;9.17;;;;;;;;;;5088465;28;20425;-78
2021/12/21 06:53:43;;;;;;;18.13;11.30;;;;;;;;;;5088701;28;20869;-77
2021/12/21 06:56:09;;;;;;;18.30;10.27;;;;;;;;;;5088656;28;20507;-78
2021/12/21 06:58:35;;;;;;;16.73;9.83;;;;;;;;;;5076216;28;20459;-78
2021/12/21 07:01:03;;;;;;;16.67;8.87;;;;;;;;;;5091148;28;20422;-78
2021/12/21 07:03:29;;;;;;;18.20;8.63;;;;;;;;;;5089667;28;20462;-77
2021/12/21 07:05:56;;;;;;;18.57;8.70;;;;;;;;;;5052604;28;20546;-77
2021/12/21 07:08:27;;;;;;;15.00;8.73;;;;;;;;;;5085863;28;20522;-78
2021/12/21 07:11:04;;;;;;;14.53;7.80;;;;;;;;;;5090429;28;20204;-78
2021/12/21 07:18:59;;;;;;;18.83;9.67;;;;;;;;;;5091467;28;20462;-78
2021/12/21 07:21:26;;;;;;;23.80;11.23;;;;;;;;;;5066975;28;20499;-77
2021/12/21 07:23:52;;;;;;;21.70;10.67;;;;;;;;;;5082444;28;20804;-78
2021/12/21 07:26:18;;;;;;;16.70;9.23;;;;;;;;;;5083787;28;20439;-78
2021/12/21 07:28:45;;;;;;;19.87;9.87;;;;;;;;;;5081954;28;20768;-77
2021/12/21 07:31:11;;;;;;;14.73;9.50;;;;;;;;;;5066497;28;20429;-77
2021/12/21 07:33:37;;;;;;;19.07;9.90;;;;;;;;;;5079633;28;20457;-78
2021/12/21 07:36:04;;;;;;;17.90;9.13;;;;;;;;;;5065521;28;20863;-78
2021/12/21 07:38:32;;;;;;;32.87;17.87;;;;;;;;;;5082364;28;20481;-77
2021/12/21 07:40:58;;;;;;;24.53;12.60;;;;;;;;;;5068020;28;20810;-78
2021/12/21 07:43:25;;;;;;;31.60;15.30;;;;;;;;;;5087066;28;20525;-83
2021/12/21 07:45:51;;;;;;;16.03;9.30;;;;;;;;;;5054795;28;20211;-77
2021/12/21 07:48:18;;;;;;;19.80;9.80;;;;;;;;;;5072424;28;20426;-80
2021/12/21 07:50:46;;;;;;;19.37;12.47;;;;;;;;;;5075157;28;20441;-77
2021/12/21 07:53:13;;;;;;;16.93;9.70;;;;;;;;;;5091811;28;20442;-78
2021/12/21 07:55:39;;;;;;;21.70;12.73;;;;;;;;;;5075037;28;20465;-78
2021/12/21 07:58:05;;;;;;;23.97;12.83;;;;;;;;;;5092835;28;20485;-76
2021/12/21 08:00:31;;;;;;;16.73;10.00;;;;;;;;;;5094300;28;20446;-79
2021/12/21 08:02:57;;;;;;;16.33;8.97;;;;;;;;;;5078559;28;20427;-79
2021/12/21 08:05:24;;;;;;;15.47;7.93;;;;;;;;;;5075977;28;20539;-79
2021/12/21 08:07:57;;;;;;;14.23;7.60;;;;;;;;;;5093646;28;20832;-79
2021/12/21 08:10:29;;;;;;;12.43;7.27;;;;;;;;;;5093692;28;20446;-79
2021/12/21 08:12:56;;;;;;;14.93;7.30;;;;;;;;;;5093921;28;20519;-79
2021/12/21 08:15:25;;;;;;;10.87;6.63;;;;;;;;;;5075876;28;20458;-79
2021/12/21 08:17:52;;;;;;;15.43;7.40;;;;;;;;;;5094649;28;20986;-78
2021/12/21 08:20:18;;;;;;;14.20;7.27;;;;;;;;;;5077655;28;20414;-78
2021/12/21 08:22:44;;;;;;;12.10;7.03;;;;;;;;;;5079131;28;20188;-78
2021/12/21 08:25:12;;;;;;;14.70;7.07;;;;;;;;;;5074928;28;20977;-79
2021/12/21 08:27:38;;;;;;;12.17;7.43;;;;;;;;;;5069560;28;20466;-79
2021/12/21 08:30:04;;;;;;;14.23;7.60;;;;;;;;;;5060468;28;20437;-79
2021/12/21 08:32:30;;;;;;;13.40;7.50;;;;;;;;;;5058319;28;21713;-78
2021/12/21 08:34:56;;;;;;;15.90;9.63;;;;;;;;;;5074961;28;20525;-79
2021/12/21 08:37:23;;;;;;;15.70;9.00;;;;;;;;;;5073123;28;20483;-79
2021/12/21 08:39:49;;;;;;;14.17;8.73;;;;;;;;;;5061855;28;20573;-79
2021/12/21 08:42:16;;;;;;;21.93;12.10;;;;;;;;;;5069124;28;20478;-79
2021/12/21 08:44:44;;;;;;;51.20;24.63;;;;;;;;;;5077929;28;20465;-79
2021/12/21 08:47:11;;;;;;;42.53;20.67;;;;;;;;;;5074122;28;20514;-79
2021/12/21 08:49:38;;;;;;;26.90;13.27;;;;;;;;;;5072766;28;20773;-79
2021/12/21 08:52:04;;;;;;;20.30;9.30;;;;;;;;;;5059456;28;20547;-78
2021/12/21 08:54:30;;;;;;;14.53;8.63;;;;;;;;;;5060169;28;20212;-79
2021/12/21 08:56:57;;;;;;;16.47;8.03;;;;;;;;;;5080152;28;20440;-79
2021/12/21 08:59:23;;;;;;;14.00;8.10;;;;;;;;;;5076694;28;20462;-78
2021/12/21 09:01:51;;;;;;;12.83;8.20;;;;;;;;;;5087953;28;20791;-78
2021/12/21 09:04:19;;;;;;;15.27;8.07;;;;;;;;;;5091312;28;20505;-79
2021/12/21 09:06:46;;;;;;;12.93;7.73;;;;;;;;;;5074716;28;20660;-81
2021/12/21 09:09:12;;;;;;;17.97;11.13;;;;;;;;;;5072533;28;20434;-81
2021/12/21 09:11:38;;;;;;;17.23;9.93;;;;;;;;;;5074346;28;20435;-83
2021/12/21 09:14:05;;;;;;;19.07;9.60;;;;;;;;;;5074279;28;20442;-79
2021/12/21 09:16:31;;;;;;;14.93;8.87;;;;;;;;;;5051172;28;20181;-79
2021/12/21 09:18:58;;;;;;;15.47;8.70;;;;;;;;;;5087694;28;20474;-79
2021/12/21 09:21:24;;;;;;;16.60;9.50;;;;;;;;;;5074248;28;20446;-79
2021/12/21 09:23:50;;;;;;;16.30;8.70;;;;;;;;;;5087217;28;20846;-79
2021/12/21 09:26:16;;;;;;;18.67;8.60;;;;;;;;;;5086867;28;20837;-79
2021/12/21 09:28:42;;;;;;;12.73;7.97;;;;;;;;;;5087866;28;20482;-79
2021/12/21 09:31:08;;;;;;;15.37;8.23;;;;;;;;;;5088411;28;20204;-79
2021/12/21 09:33:35;;;;;;;19.00;8.70;;;;;;;;;;5087177;28;20181;-80
2021/12/21 09:36:01;;;;;;;14.47;8.57;;;;;;;;;;5072750;28;20215;-79
2021/12/21 09:38:27;;;;;;;14.07;8.17;;;;;;;;;;5090870;28;20677;-79
2021/12/21 09:40:55;;;;;;;11.20;8.47;;;;;;;;;;5072309;28;20184;-79
2021/12/21 09:43:21;;;;;;;12.33;7.80;;;;;;;;;;5072419;28;20362;-79
2021/12/21 09:45:47;;;;;;;11.83;7.77;;;;;;;;;;5090446;28;20295;-79
2021/12/21 09:48:14;;;;;;;14.03;8.20;;;;;;;;;;5075576;28;20561;-79
2021/12/21 09:50:41;;;;;;;16.83;8.23;;;;;;;;;;5088017;28;20185;-79
2021/12/21 09:53:08;;;;;;;14.47;8.47;;;;;;;;;;5060078;28;20181;-79
2021/12/21 09:55:34;;;;;;;13.53;7.87;;;;;;;;;;5087330;28;20212;-79
2021/12/21 09:58:00;;;;;;;20.23;9.73;;;;;;;;;;5067831;28;20852;-78
2021/12/21 10:00:28;;;;;;;13.43;8.40;;;;;;;;;;5049373;28;20655;-84
2021/12/21 10:03:02;;;;;;;15.90;8.83;;;;;;;;;;5065456;28;20480;-78
2021/12/21 10:05:29;;;;;;;13.57;8.40;;;;;;;;;;5071859;28;20233;-82
2021/12/21 10:08:00;;;;;;;16.60;8.40;;;;;;;;;;5070191;28;20212;-79
2021/12/21 10:10:26;;;;;;;19.13;8.57;;;;;;;;;;5084985;28;20221;-80
2021/12/21 10:12:53;;;;;;;11.03;7.77;;;;;;;;;;5074614;28;20184;-82
2021/12/21 10:15:20;;;;;;;11.50;7.37;;;;;;;;;;5071263;28;20301;-82
2021/12/21 10:17:48;;;;;;;12.33;6.80;;;;;;;;;;5067087;28;20242;-84
2021/12/21 10:20:29;;;;;;;10.37;6.37;;;;;;;;;;5055213;28;20189;-82
2021/12/21 10:22:55;;;;;;;9.67;5.37;;;;;;;;;;5050939;28;20189;-79
2021/12/21 10:25:23;;;;;;;8.10;4.43;;;;;;;;;;5081284;28;20277;-79
2021/12/21 10:27:50;;;;;;;7.23;4.00;;;;;;;;;;5081910;28;20320;-77
2021/12/21 10:30:16;;;;;;;8.10;4.47;;;;;;;;;;5074408;28;20599;-79
2021/12/21 10:32:55;;;;;;;6.07;3.20;;;;;;;;;;5057140;28;20694;-78
2021/12/21 10:35:29;;;;;;;6.50;3.37;;;;;;;;;;5064357;28;20585;-78
2021/12/21 10:37:56;;;;;;;7.20;3.80;;;;;;;;;;5080471;28;20204;-78
2021/12/21 10:40:25;;;;;;;6.37;3.93;;;;;;;;;;5062149;28;20261;-78
2021/12/21 10:42:53;;;;;;;6.53;3.50;;;;;;;;;;5095314;28;20183;-78
2021/12/21 10:45:24;;;;;;;5.77;3.23;;;;;;;;;;5081647;28;20632;-78
2021/12/21 10:47:51;;;;;;;5.90;4.40;;;;;;;;;;5077449;28;20264;-78
2021/12/21 10:50:17;;;;;;;6.03;3.40;;;;;;;;;;5061991;28;20868;-78
2021/12/21 10:52:53;;;;;;;5.30;3.43;;;;;;;;;;5083627;28;20192;-79
2021/12/21 10:55:32;;;;;;;6.27;3.87;;;;;;;;;;5093271;28;20226;-78
2021/12/21 10:58:03;;;;;;;7.10;3.57;;;;;;;;;;5086990;28;20204;-78
2021/12/21 11:00:29;;;;;;;6.67;4.10;;;;;;;;;;5082993;28;20188;-78
2021/12/21 11:02:56;;;;;;;6.07;3.50;;;;;;;;;;5083954;28;20184;-78
2021/12/21 11:05:23;;;;;;;5.37;3.57;;;;;;;;;;5083344;28;20508;-78
2021/12/21 11:08:01;;;;;;;3.43;2.90;;;;;;;;;;5081965;28;21323;-78
2021/12/21 11:10:30;;;;;;;4.27;3.10;;;;;;;;;;5079147;28;20246;-79
2021/12/21 11:12:59;;;;;;;4.63;3.03;;;;;;;;;;5078957;28;20184;-78
2021/12/21 11:15:30;;;;;;;4.20;3.20;;;;;;;;;;5047872;28;20239;-78
2021/12/21 11:17:57;;;;;;;4.90;3.30;;;;;;;;;;5060721;28;20212;-78
2021/12/21 11:20:23;;;;;;;5.00;3.20;;;;;;;;;;5064813;28;20184;-79
2021/12/21 11:22:50;;;;;;;5.83;3.00;;;;;;;;;;5061823;28;20208;-79
2021/12/21 11:25:17;;;;;;;6.13;3.30;;;;;;;;;;5077970;28;20296;-79
2021/12/21 11:27:43;;;;;;;5.43;3.63;;;;;;;;;;5079431;28;20580;-79
2021/12/21 11:30:14;;;;;;;5.57;3.20;;;;;;;;;;5103596;28;20223;-79
2021/12/21 11:32:44;;;;;;;4.63;2.80;;;;;;;;;;5067077;28;20176;-79
2021/12/21 11:37:40;;;;;;;4.63;3.03;;;;;;;;;;5083114;28;20255;-79
2021/12/21 11:40:07;;;;;;;6.20;3.00;;;;;;;;;;5084779;28;20188;-79
2021/12/21 11:42:35;;;;;;;4.33;3.13;;;;;;;;;;5081689;28;20287;-79
2021/12/21 11:45:13;;;;;;;4.37;3.00;;;;;;;;;;5080567;28;20203;-79
2021/12/21 11:47:48;;;;;;;6.23;3.47;;;;;;;;;;5064990;28;20186;-79
2021/12/21 11:50:14;;;;;;;6.03;3.57;;;;;;;;;;5085909;28;20459;-79
2021/12/21 11:52:48;;;;;;;6.07;3.60;;;;;;;;;;5052602;28;20612;-78
2021/12/21 11:55:15;;;;;;;4.80;3.47;;;;;;;;;;5081841;28;20341;-78
2021/12/21 11:57:50;;;;;;;8.50;3.47;;;;;;;;;;5045022;28;20193;-76
2021/12/21 12:00:21;;;;;;;4.90;3.57;;;;;;;;;;5079285;28;20540;-76
2021/12/21 12:02:49;;;;;;;7.20;3.80;;;;;;;;;;5071406;28;20185;-76
2021/12/21 12:05:16;;;;;;;5.30;3.30;;;;;;;;;;5071017;28;20209;-76
2021/12/21 12:07:42;;;;;;;6.60;3.47;;;;;;;;;;5076249;28;20226;-76
2021/12/21 12:10:16;;;;;;;6.20;3.07;;;;;;;;;;5065258;28;20271;-76
2021/12/21 12:12:42;;;;;;;5.70;3.37;;;;;;;;;;5079547;28;20315;-76
2021/12/21 12:15:09;;;;;;;7.87;3.57;;;;;;;;;;5061642;28;20200;-76
2021/12/21 12:17:49;;;;;;;6.13;3.60;;;;;;;;;;5081517;28;20555;-76
2021/12/21 12:20:16;;;;;;;5.57;3.80;;;;;;;;;;5082086;28;20191;-77
2021/12/21 12:22:43;;;;;;;8.50;3.50;;;;;;;;;;5084589;28;20283;-76
2021/12/21 12:25:17;;;;;;;6.03;3.47;;;;;;;;;;5084074;28;20289;-74
2021/12/21 12:27:44;;;;;;;5.50;3.37;;;;;;;;;;5068440;28;20199;-78
2021/12/21 12:30:11;;;;;;;7.83;3.70;;;;;;;;;;5081867;28;20176;-73
2021/12/21 12:32:37;;;;;;;4.67;3.37;;;;;;;;;;5090394;28;20270;-77
2021/12/21 12:35:05;;;;;;;4.03;3.40;;;;;;;;;;5091102;28;20505;-78
2021/12/21 12:37:32;;;;;;;5.83;3.47;;;;;;;;;;5091526;28;20701;-75
2021/12/21 12:40:08;;;;;;;5.30;3.67;;;;;;;;;;5075482;28;20375;-81
2021/12/21 12:42:35;;;;;;;9.47;3.50;;;;;;;;;;5075066;28;20695;-76
2021/12/21 12:45:04;;;;;;;6.30;3.70;;;;;;;;;;5061966;28;20219;-77
2021/12/21 12:47:30;;;;;;;5.80;3.83;;;;;;;;;;5079791;28;20288;-77
2021/12/21 12:49:56;;;;;;;9.33;3.60;;;;;;;;;;5077369;28;20542;-77
2021/12/21 12:52:28;;;;;;;5.10;3.60;;;;;;;;;;5085121;28;20196;-78
2021/12/21 12:54:59;;;;;;;6.87;3.40;;;;;;;;;;5060844;28;20204;-77
2021/12/21 12:57:30;;;;;;;5.90;3.60;;;;;;;;;;5081011;28;20200;-77
2021/12/21 13:00:16;;;;;;;6.40;3.73;;;;;;;;;;5067509;28;20212;-76
2021/12/21 13:02:52;;;;;;;6.20;3.73;;;;;;;;;;5087369;28;20185;-75
2021/12/21 13:05:19;;;;;;;7.07;4.03;;;;;;;;;;5087269;28;20235;-77
2021/12/21 13:07:45;;;;;;;6.30;3.70;;;;;;;;;;5092018;28;20388;-78
2021/12/21 13:10:11;;;;;;;6.33;3.67;;;;;;;;;;5092139;28;20176;-77
2021/12/21 13:12:38;;;;;;;5.40;3.60;;;;;;;;;;5088716;28;20185;-77
2021/12/21 13:15:08;;;;;;;6.73;4.13;;;;;;;;;;5085542;28;20236;-76
2021/12/21 13:17:34;;;;;;;4.67;3.50;;;;;;;;;;5084885;28;20185;-76
2021/12/21 13:20:01;;;;;;;11.33;3.90;;;;;;;;;;5071522;28;20332;-76
2021/12/21 13:22:28;;;;;;;6.27;3.80;;;;;;;;;;5080939;28;20178;-77
2021/12/21 13:24:55;;;;;;;6.30;4.33;;;;;;;;;;5088911;28;20203;-76
2021/12/21 13:27:23;;;;;;;5.50;3.60;;;;;;;;;;5044619;28;20192;-77
2021/12/21 13:29:50;;;;;;;7.47;4.30;;;;;;;;;;5081713;28;20184;-77
2021/12/21 13:32:18;;;;;;;5.97;3.97;;;;;;;;;;5070411;28;20196;-76
2021/12/21 13:34:45;;;;;;;6.20;4.20;;;;;;;;;;5081147;28;20348;-76
2021/12/21 13:37:13;;;;;;;6.77;3.63;;;;;;;;;;5066590;28;20189;-77
2021/12/21 13:39:44;;;;;;;7.60;4.20;;;;;;;;;;5072595;28;20572;-76
2021/12/21 13:42:11;;;;;;;7.73;4.10;;;;;;;;;;5070451;28;20344;-77
2021/12/21 13:44:39;;;;;;;5.10;3.43;;;;;;;;;;5089501;28;20295;-77
2021/12/21 13:47:14;;;;;;;6.80;4.13;;;;;;;;;;5087764;28;20184;-76
2021/12/21 13:50:10;;;;;;;6.53;3.80;;;;;;;;;;5063687;28;20192;-78
2021/12/21 13:52:41;;;;;;;4.83;4.00;;;;;;;;;;5043823;28;20250;-76
2021/12/21 13:55:19;;;;;;;5.50;3.90;;;;;;;;;;5078997;28;20244;-77
2021/12/21 13:57:47;;;;;;;7.67;4.33;;;;;;;;;;5066004;28;20189;-77
2021/12/21 14:00:13;;;;;;;6.33;4.30;;;;;;;;;;5072752;28;20280;-77
2021/12/21 14:02:42;;;;;;;6.83;4.00;;;;;;;;;;5074636;28;20231;-77
2021/12/21 14:05:12;;;;;;;6.67;3.80;;;;;;;;;;5075109;28;20201;-77
2021/12/21 14:07:39;;;;;;;6.57;4.37;;;;;;;;;;5073758;28;20180;-77
2021/12/21 14:10:19;;;;;;;7.43;4.43;;;;;;;;;;5076110;28;20269;-76
2021/12/21 14:12:59;;;;;;;7.70;4.13;;;;;;;;;;5088989;28;20199;-77
2021/12/21 14:15:38;;;;;;;7.90;4.07;;;;;;;;;;5076585;28;20240;-77
2021/12/21 14:18:13;;;;;;;8.67;4.30;;;;;;;;;;5076395;28;20325;-77
2021/12/21 14:20:40;;;;;;;9.10;4.10;;;;;;;;;;5077526;28;20652;-77
2021/12/21 14:23:06;;;;;;;7.40;4.50;;;;;;;;;;5075050;28;20193;-77
2021/12/21 14:25:32;;;;;;;6.30;4.33;;;;;;;;;;5064155;28;20287;-77
2021/12/21 14:28:12;;;;;;;5.07;3.30;;;;;;;;;;5052378;28;20190;-77
2021/12/21 14:30:39;;;;;;;5.63;4.20;;;;;;;;;;5053957;28;22593;-77
2021/12/21 14:33:09;;;;;;;8.30;4.40;;;;;;;;;;5073842;28;20192;-77
2021/12/21 14:35:39;;;;;;;6.53;4.23;;;;;;;;;;5078309;28;20471;-77
2021/12/21 14:38:16;;;;;;;8.07;4.00;;;;;;;;;;5062802;28;20216;-77
2021/12/21 14:40:44;;;;;;;6.30;4.20;;;;;;;;;;5077249;28;20180;-77
2021/12/21 14:43:21;;;;;;;7.10;4.60;;;;;;;;;;5077238;28;20332;-77
2021/12/21 14:45:47;;;;;;;6.77;3.90;;;;;;;;;;5063366;28;21300;-78
2021/12/21 14:48:15;;;;;;;7.87;4.60;;;;;;;;;;5073426;28;20189;-77
2021/12/21 14:50:47;;;;;;;6.20;3.97;;;;;;;;;;5071257;28;20580;-77
2021/12/21 14:53:18;;;;;;;6.50;4.10;;;;;;;;;;5080998;28;20180;-77
2021/12/21 14:55:44;;;;;;;7.80;4.80;;;;;;;;;;5091582;28;20205;-77
2021/12/21 14:58:16;;;;;;;5.47;3.60;;;;;;;;;;5088208;28;20265;-77
2021/12/21 15:00:49;;;;;;;7.10;3.60;;;;;;;;;;5077435;28;20192;-77
2021/12/21 15:03:18;;;;;;;6.53;4.20;;;;;;;;;;5072364;28;20180;-77
2021/12/21 15:05:47;;;;;;;7.77;4.60;;;;;;;;;;5060638;28;20275;-77
2021/12/21 15:08:15;;;;;;;5.63;4.07;;;;;;;;;;5057315;28;20238;-78
2021/12/21 15:10:43;;;;;;;6.07;3.87;;;;;;;;;;5063097;28;20749;-77
2021/12/21 15:13:09;;;;;;;5.93;3.80;;;;;;;;;;5062433;28;20184;-77
2021/12/21 15:15:37;;;;;;;5.90;3.20;;;;;;;;;;5069963;28;20227;-77
2021/12/21 15:18:04;;;;;;;5.43;3.47;;;;;;;;;;5073865;28;20268;-77
2021/12/21 15:20:30;;;;;;;5.77;3.60;;;;;;;;;;5075505;28;20185;-77
2021/12/21 15:22:57;;;;;;;5.17;3.80;;;;;;;;;;5073462;28;20180;-76
2021/12/21 15:25:23;;;;;;;5.83;3.93;;;;;;;;;;5074196;28;20212;-77
2021/12/21 15:27:50;;;;;;;5.17;3.57;;;;;;;;;;5069922;28;20173;-77
2021/12/21 15:30:18;;;;;;;6.63;3.87;;;;;;;;;;5074758;28;20185;-77
2021/12/21 15:32:45;;;;;;;5.67;3.30;;;;;;;;;;5058967;28;20676;-77